sensor_id;sensor_type;location;lat;lon;timestamp;temperature;humidity
22185;DHT22;11258;52.516;13.318;2022-11-27T00:00:52;8.40;99.90
22185;DHT22;11258;52.516;13.318;2022-11-27T00:03:18;8.40;99.90
22185;DHT22;11258;52.516;13.318;2022-11-27T00:05:54;8.40;99.90
22185;DHT22;11258;52.516;13.318;2022-11-27T00:08:21;8.30;99.90
22185;DHT22;11258;52.516;13.318;2022-11-27T00:10:46;8.30;99.90
22185;DHT22;11258;52.516;13.318;2022-11-27T00:13:12;8.30;99.90
22185;DHT22;11258;52.516;13.318;2022-11-27T00:15:38;8.30;99.90
22185;DHT22;11258;52.516;13.318;2022-11-27T00:18:03;8.30;99.90
22185;DHT22;11258;52.516;13.318;2022-11-27T00:20:29;8.20;99.90
22185;DHT22;11258;52.516;13.318;2022-11-27T00:22:54;8.20;99.90
22185;DHT22;11258;52.516;13.318;2022-11-27T00:25:20;8.20;99.90
22185;DHT22;11258;52.516;13.318;2022-11-27T00:27:46;8.20;99.90
22185;DHT22;11258;52.516;13.318;2022-11-27T00:30:12;8.20;99.90
22185;DHT22;11258;52.516;13.318;2022-11-27T00:32:37;8.20;99.90
22185;DHT22;11258;52.516;13.318;2022-11-27T00:35:03;8.20;99.90
22185;DHT22;11258;52.516;13.318;2022-11-27T00:37:29;8.30;99.90
22185;DHT22;11258;52.516;13.318;2022-11-27T00:39:54;8.30;99.90
22185;DHT22;11258;52.516;13.318;2022-11-27T00:42:20;8.30;99.90
22185;DHT22;11258;52.516;13.318;2022-11-27T00:44:45;8.30;99.90
22185;DHT22;11258;52.516;13.318;2022-11-27T00:47:11;8.30;99.90
22185;DHT22;11258;52.516;13.318;2022-11-27T00:49:37;8.30;99.90
22185;DHT22;11258;52.516;13.318;2022-11-27T00:52:02;8.30;99.90
22185;DHT22;11258;52.516;13.318;2022-11-27T00:54:28;8.30;99.90
22185;DHT22;11258;52.516;13.318;2022-11-27T00:56:54;8.30;99.90
22185;DHT22;11258;52.516;13.318;2022-11-27T00:59:19;8.30;99.90
22185;DHT22;11258;52.516;13.318;2022-11-27T01:01:46;8.30;99.90
22185;DHT22;11258;52.516;13.318;2022-11-27T01:04:13;8.30;99.90
22185;DHT22;11258;52.516;13.318;2022-11-27T01:06:40;8.30;99.90
22185;DHT22;11258;52.516;13.318;2022-11-27T01:09:06;8.30;99.90
22185;DHT22;11258;52.516;13.318;2022-11-27T01:11:34;8.30;99.90
22185;DHT22;11258;52.516;13.318;2022-11-27T01:14:06;8.30;99.90
22185;DHT22;11258;52.516;13.318;2022-11-27T01:16:33;8.30;99.90
22185;DHT22;11258;52.516;13.318;2022-11-27T01:19:00;8.30;99.90
22185;DHT22;11258;52.516;13.318;2022-11-27T01:21:29;8.30;99.90
22185;DHT22;11258;52.516;13.318;2022-11-27T01:23:55;8.20;99.90
22185;DHT22;11258;52.516;13.318;2022-11-27T01:26:21;8.30;99.90
22185;DHT22;11258;52.516;13.318;2022-11-27T01:28:50;8.30;99.90
22185;DHT22;11258;52.516;13.318;2022-11-27T01:31:19;8.20;99.90
22185;DHT22;11258;52.516;13.318;2022-11-27T01:33:45;8.20;99.90
22185;DHT22;11258;52.516;13.318;2022-11-27T01:36:13;8.30;99.90
22185;DHT22;11258;52.516;13.318;2022-11-27T01:38:38;8.20;99.90
22185;DHT22;11258;52.516;13.318;2022-11-27T01:43:57;8.30;99.90
22185;DHT22;11258;52.516;13.318;2022-11-27T01:47:01;8.30;99.90
22185;DHT22;11258;52.516;13.318;2022-11-27T01:49:47;8.20;99.90
22185;DHT22;11258;52.516;13.318;2022-11-27T01:52:30;8.20;99.90
22185;DHT22;11258;52.516;13.318;2022-11-27T01:57:24;8.10;99.90
22185;DHT22;11258;52.516;13.318;2022-11-27T01:59:53;8.20;99.90
22185;DHT22;11258;52.516;13.318;2022-11-27T02:02:20;8.20;99.90
22185;DHT22;11258;52.516;13.318;2022-11-27T02:04:46;8.20;99.90
22185;DHT22;11258;52.516;13.318;2022-11-27T02:07:12;8.20;99.90
22185;DHT22;11258;52.516;13.318;2022-11-27T02:09:37;8.20;99.90
22185;DHT22;11258;52.516;13.318;2022-11-27T02:12:25;8.10;99.90
22185;DHT22;11258;52.516;13.318;2022-11-27T02:23:09;8.10;99.90
22185;DHT22;11258;52.516;13.318;2022-11-27T02:31:09;7.90;99.90
22185;DHT22;11258;52.516;13.318;2022-11-27T02:33:41;7.90;99.90
22185;DHT22;11258;52.516;13.318;2022-11-27T02:36:18;7.90;99.90
22185;DHT22;11258;52.516;13.318;2022-11-27T02:38:54;7.90;99.90
22185;DHT22;11258;52.516;13.318;2022-11-27T02:41:27;7.80;99.90
22185;DHT22;11258;52.516;13.318;2022-11-27T02:43:54;7.90;99.90
22185;DHT22;11258;52.516;13.318;2022-11-27T02:46:21;7.90;99.90
22185;DHT22;11258;52.516;13.318;2022-11-27T02:48:49;7.90;99.90
22185;DHT22;11258;52.516;13.318;2022-11-27T02:51:19;7.80;99.90
22185;DHT22;11258;52.516;13.318;2022-11-27T02:53:53;7.80;99.90
22185;DHT22;11258;52.516;13.318;2022-11-27T02:56:22;7.80;99.90
22185;DHT22;11258;52.516;13.318;2022-11-27T02:58:49;7.80;99.90
22185;DHT22;11258;52.516;13.318;2022-11-27T03:01:18;7.80;99.90
22185;DHT22;11258;52.516;13.318;2022-11-27T03:03:47;7.70;99.90
22185;DHT22;11258;52.516;13.318;2022-11-27T03:06:41;7.70;99.90
22185;DHT22;11258;52.516;13.318;2022-11-27T03:09:16;7.70;99.90
22185;DHT22;11258;52.516;13.318;2022-11-27T03:11:43;7.70;99.90
22185;DHT22;11258;52.516;13.318;2022-11-27T03:14:11;7.70;99.90
22185;DHT22;11258;52.516;13.318;2022-11-27T03:17:05;7.60;99.90
22185;DHT22;11258;52.516;13.318;2022-11-27T03:19:57;7.60;99.90
22185;DHT22;11258;52.516;13.318;2022-11-27T03:22:24;7.50;99.90
22185;DHT22;11258;52.516;13.318;2022-11-27T03:24:52;7.50;99.90
22185;DHT22;11258;52.516;13.318;2022-11-27T03:27:31;7.50;99.90
22185;DHT22;11258;52.516;13.318;2022-11-27T03:30:00;7.50;99.90
22185;DHT22;11258;52.516;13.318;2022-11-27T03:32:28;7.50;99.90
22185;DHT22;11258;52.516;13.318;2022-11-27T03:34:55;7.40;99.90
22185;DHT22;11258;52.516;13.318;2022-11-27T03:37:22;7.40;99.90
22185;DHT22;11258;52.516;13.318;2022-11-27T03:39:48;7.40;99.90
22185;DHT22;11258;52.516;13.318;2022-11-27T03:50:45;7.40;99.90
22185;DHT22;11258;52.516;13.318;2022-11-27T03:59:13;7.40;99.90
22185;DHT22;11258;52.516;13.318;2022-11-27T04:01:39;7.40;99.90
22185;DHT22;11258;52.516;13.318;2022-11-27T04:04:05;7.30;99.90
22185;DHT22;11258;52.516;13.318;2022-11-27T04:06:31;7.40;99.90
22185;DHT22;11258;52.516;13.318;2022-11-27T04:08:57;7.40;99.90
22185;DHT22;11258;52.516;13.318;2022-11-27T04:11:22;7.40;99.90
22185;DHT22;11258;52.516;13.318;2022-11-27T04:13:48;7.40;99.90
22185;DHT22;11258;52.516;13.318;2022-11-27T04:16:16;7.30;99.90
22185;DHT22;11258;52.516;13.318;2022-11-27T04:18:42;7.20;99.90
22185;DHT22;11258;52.516;13.318;2022-11-27T04:21:08;7.20;99.90
22185;DHT22;11258;52.516;13.318;2022-11-27T04:23:34;7.20;99.90
22185;DHT22;11258;52.516;13.318;2022-11-27T04:25:59;7.10;99.90
22185;DHT22;11258;52.516;13.318;2022-11-27T04:28:25;7.10;99.90
22185;DHT22;11258;52.516;13.318;2022-11-27T04:30:52;7.10;99.90
22185;DHT22;11258;52.516;13.318;2022-11-27T04:33:18;7.00;99.90
22185;DHT22;11258;52.516;13.318;2022-11-27T04:35:44;6.90;99.90
22185;DHT22;11258;52.516;13.318;2022-11-27T04:38:10;7.00;99.90
22185;DHT22;11258;52.516;13.318;2022-11-27T04:40:35;7.00;99.90
22185;DHT22;11258;52.516;13.318;2022-11-27T04:43:01;7.10;99.90
22185;DHT22;11258;52.516;13.318;2022-11-27T04:45:26;7.00;99.90
22185;DHT22;11258;52.516;13.318;2022-11-27T04:47:52;6.90;99.90
22185;DHT22;11258;52.516;13.318;2022-11-27T04:50:18;6.70;99.90
22185;DHT22;11258;52.516;13.318;2022-11-27T04:52:43;6.70;99.90
22185;DHT22;11258;52.516;13.318;2022-11-27T04:55:09;6.70;99.90
22185;DHT22;11258;52.516;13.318;2022-11-27T04:57:34;6.70;99.90
22185;DHT22;11258;52.516;13.318;2022-11-27T05:00:01;6.60;99.90
22185;DHT22;11258;52.516;13.318;2022-11-27T05:02:27;6.50;99.90
22185;DHT22;11258;52.516;13.318;2022-11-27T05:04:52;6.40;99.90
22185;DHT22;11258;52.516;13.318;2022-11-27T05:07:18;6.40;99.90
22185;DHT22;11258;52.516;13.318;2022-11-27T05:09:44;6.40;99.90
22185;DHT22;11258;52.516;13.318;2022-11-27T05:12:09;6.30;99.90
22185;DHT22;11258;52.516;13.318;2022-11-27T05:14:35;6.30;99.90
22185;DHT22;11258;52.516;13.318;2022-11-27T05:17:00;6.30;99.90
22185;DHT22;11258;52.516;13.318;2022-11-27T05:19:28;6.20;99.90
22185;DHT22;11258;52.516;13.318;2022-11-27T05:21:54;6.20;99.90
22185;DHT22;11258;52.516;13.318;2022-11-27T05:24:22;6.20;99.90
22185;DHT22;11258;52.516;13.318;2022-11-27T05:26:48;6.10;99.90
22185;DHT22;11258;52.516;13.318;2022-11-27T05:29:14;6.10;99.90
22185;DHT22;11258;52.516;13.318;2022-11-27T05:31:40;6.00;99.90
22185;DHT22;11258;52.516;13.318;2022-11-27T05:34:07;6.00;99.90
22185;DHT22;11258;52.516;13.318;2022-11-27T05:36:34;6.00;99.90
22185;DHT22;11258;52.516;13.318;2022-11-27T05:39:01;6.10;99.90
22185;DHT22;11258;52.516;13.318;2022-11-27T05:41:27;6.00;99.90
22185;DHT22;11258;52.516;13.318;2022-11-27T05:43:53;6.00;99.90
22185;DHT22;11258;52.516;13.318;2022-11-27T05:46:20;6.00;99.90
22185;DHT22;11258;52.516;13.318;2022-11-27T05:48:46;6.00;99.90
22185;DHT22;11258;52.516;13.318;2022-11-27T05:51:13;6.00;99.90
22185;DHT22;11258;52.516;13.318;2022-11-27T05:53:38;5.90;99.90
22185;DHT22;11258;52.516;13.318;2022-11-27T05:56:06;5.90;99.90
22185;DHT22;11258;52.516;13.318;2022-11-27T05:58:33;5.80;99.90
22185;DHT22;11258;52.516;13.318;2022-11-27T06:00:59;5.80;99.90
22185;DHT22;11258;52.516;13.318;2022-11-27T06:03:25;5.80;99.90
22185;DHT22;11258;52.516;13.318;2022-11-27T06:05:51;5.80;99.90
22185;DHT22;11258;52.516;13.318;2022-11-27T06:08:16;5.80;99.90
22185;DHT22;11258;52.516;13.318;2022-11-27T06:10:44;5.90;99.90
22185;DHT22;11258;52.516;13.318;2022-11-27T06:13:09;5.90;99.90
22185;DHT22;11258;52.516;13.318;2022-11-27T06:15:37;5.80;99.90
22185;DHT22;11258;52.516;13.318;2022-11-27T06:18:03;5.80;99.90
22185;DHT22;11258;52.516;13.318;2022-11-27T06:20:28;5.80;99.90
22185;DHT22;11258;52.516;13.318;2022-11-27T06:22:55;5.80;99.90
22185;DHT22;11258;52.516;13.318;2022-11-27T06:25:20;5.80;99.90
22185;DHT22;11258;52.516;13.318;2022-11-27T06:27:46;5.90;99.90
22185;DHT22;11258;52.516;13.318;2022-11-27T06:30:12;5.80;99.90
22185;DHT22;11258;52.516;13.318;2022-11-27T06:32:37;5.80;99.90
22185;DHT22;11258;52.516;13.318;2022-11-27T06:35:03;5.80;99.90
22185;DHT22;11258;52.516;13.318;2022-11-27T06:37:29;5.80;99.90
22185;DHT22;11258;52.516;13.318;2022-11-27T06:39:55;5.80;99.90
22185;DHT22;11258;52.516;13.318;2022-11-27T06:42:21;5.80;99.90
22185;DHT22;11258;52.516;13.318;2022-11-27T06:44:46;5.80;99.90
22185;DHT22;11258;52.516;13.318;2022-11-27T06:47:12;5.70;99.90
22185;DHT22;11258;52.516;13.318;2022-11-27T06:49:37;5.70;99.90
22185;DHT22;11258;52.516;13.318;2022-11-27T06:52:03;5.60;99.90
22185;DHT22;11258;52.516;13.318;2022-11-27T06:54:29;5.60;99.90
22185;DHT22;11258;52.516;13.318;2022-11-27T06:56:55;5.70;99.90
22185;DHT22;11258;52.516;13.318;2022-11-27T06:59:20;5.60;99.90
22185;DHT22;11258;52.516;13.318;2022-11-27T07:01:46;5.70;99.90
22185;DHT22;11258;52.516;13.318;2022-11-27T07:04:13;5.50;99.90
22185;DHT22;11258;52.516;13.318;2022-11-27T07:06:39;5.50;99.90
22185;DHT22;11258;52.516;13.318;2022-11-27T07:09:06;5.50;99.90
22185;DHT22;11258;52.516;13.318;2022-11-27T07:11:33;5.50;99.90
22185;DHT22;11258;52.516;13.318;2022-11-27T07:14:01;5.40;99.90
22185;DHT22;11258;52.516;13.318;2022-11-27T07:16:29;5.50;99.90
22185;DHT22;11258;52.516;13.318;2022-11-27T07:18:59;5.60;99.90
22185;DHT22;11258;52.516;13.318;2022-11-27T07:21:25;5.60;99.90
22185;DHT22;11258;52.516;13.318;2022-11-27T07:23:51;5.50;99.90
22185;DHT22;11258;52.516;13.318;2022-11-27T07:26:19;5.40;99.90
22185;DHT22;11258;52.516;13.318;2022-11-27T07:28:46;5.40;99.90
22185;DHT22;11258;52.516;13.318;2022-11-27T07:31:14;5.50;99.90
22185;DHT22;11258;52.516;13.318;2022-11-27T07:33:39;5.50;99.90
22185;DHT22;11258;52.516;13.318;2022-11-27T07:36:14;5.40;99.90
22185;DHT22;11258;52.516;13.318;2022-11-27T07:38:39;5.40;99.90
22185;DHT22;11258;52.516;13.318;2022-11-27T07:41:05;5.30;99.90
22185;DHT22;11258;52.516;13.318;2022-11-27T07:43:32;5.30;99.90
22185;DHT22;11258;52.516;13.318;2022-11-27T07:46:00;5.40;99.90
22185;DHT22;11258;52.516;13.318;2022-11-27T07:48:27;5.50;99.90
22185;DHT22;11258;52.516;13.318;2022-11-27T07:50:52;5.60;99.90
22185;DHT22;11258;52.516;13.318;2022-11-27T07:53:18;5.70;99.90
22185;DHT22;11258;52.516;13.318;2022-11-27T07:55:44;5.70;99.90
22185;DHT22;11258;52.516;13.318;2022-11-27T07:58:09;5.70;99.90
22185;DHT22;11258;52.516;13.318;2022-11-27T08:00:35;5.70;99.90
22185;DHT22;11258;52.516;13.318;2022-11-27T08:03:01;5.60;99.90
22185;DHT22;11258;52.516;13.318;2022-11-27T08:05:27;5.70;99.90
22185;DHT22;11258;52.516;13.318;2022-11-27T08:07:53;5.70;99.90
22185;DHT22;11258;52.516;13.318;2022-11-27T08:10:18;5.70;99.90
22185;DHT22;11258;52.516;13.318;2022-11-27T08:12:44;5.70;99.90
22185;DHT22;11258;52.516;13.318;2022-11-27T08:15:10;5.70;99.90
22185;DHT22;11258;52.516;13.318;2022-11-27T08:17:36;5.70;99.90
22185;DHT22;11258;52.516;13.318;2022-11-27T08:20:02;5.70;99.90
22185;DHT22;11258;52.516;13.318;2022-11-27T08:22:28;5.70;99.90
22185;DHT22;11258;52.516;13.318;2022-11-27T08:24:54;5.80;99.90
22185;DHT22;11258;52.516;13.318;2022-11-27T08:27:19;5.90;99.90
22185;DHT22;11258;52.516;13.318;2022-11-27T08:29:45;5.90;99.90
22185;DHT22;11258;52.516;13.318;2022-11-27T08:32:11;6.00;99.90
22185;DHT22;11258;52.516;13.318;2022-11-27T08:34:37;6.10;99.90
22185;DHT22;11258;52.516;13.318;2022-11-27T08:37:04;6.10;99.90
22185;DHT22;11258;52.516;13.318;2022-11-27T08:39:29;6.40;99.90
22185;DHT22;11258;52.516;13.318;2022-11-27T08:41:55;6.50;99.90
22185;DHT22;11258;52.516;13.318;2022-11-27T08:44:21;6.30;99.90
22185;DHT22;11258;52.516;13.318;2022-11-27T08:46:46;6.60;99.90
22185;DHT22;11258;52.516;13.318;2022-11-27T08:49:12;6.60;99.90
22185;DHT22;11258;52.516;13.318;2022-11-27T08:51:37;6.60;99.90
22185;DHT22;11258;52.516;13.318;2022-11-27T08:54:03;6.40;99.90
22185;DHT22;11258;52.516;13.318;2022-11-27T08:56:29;6.70;99.90
22185;DHT22;11258;52.516;13.318;2022-11-27T08:58:55;6.70;99.90
22185;DHT22;11258;52.516;13.318;2022-11-27T09:01:27;6.80;99.90
22185;DHT22;11258;52.516;13.318;2022-11-27T09:03:54;6.80;99.90
22185;DHT22;11258;52.516;13.318;2022-11-27T09:06:23;7.00;99.90
22185;DHT22;11258;52.516;13.318;2022-11-27T09:08:49;6.90;99.90
22185;DHT22;11258;52.516;13.318;2022-11-27T09:11:17;7.00;99.90
22185;DHT22;11258;52.516;13.318;2022-11-27T09:13:44;7.00;99.90
22185;DHT22;11258;52.516;13.318;2022-11-27T09:16:12;6.90;99.90
22185;DHT22;11258;52.516;13.318;2022-11-27T09:18:39;6.80;99.90
22185;DHT22;11258;52.516;13.318;2022-11-27T09:21:07;6.90;99.90
22185;DHT22;11258;52.516;13.318;2022-11-27T09:23:33;6.90;99.90
22185;DHT22;11258;52.516;13.318;2022-11-27T09:26:01;7.00;99.90
22185;DHT22;11258;52.516;13.318;2022-11-27T09:28:27;7.10;99.90
22185;DHT22;11258;52.516;13.318;2022-11-27T09:30:56;7.10;99.90
22185;DHT22;11258;52.516;13.318;2022-11-27T09:33:24;7.10;99.90
22185;DHT22;11258;52.516;13.318;2022-11-27T09:35:50;7.10;99.90
22185;DHT22;11258;52.516;13.318;2022-11-27T09:38:16;7.30;99.90
22185;DHT22;11258;52.516;13.318;2022-11-27T09:40:52;7.40;99.90
22185;DHT22;11258;52.516;13.318;2022-11-27T09:43:28;7.20;99.90
22185;DHT22;11258;52.516;13.318;2022-11-27T09:45:58;7.30;99.90
22185;DHT22;11258;52.516;13.318;2022-11-27T09:48:46;7.30;99.90
22185;DHT22;11258;52.516;13.318;2022-11-27T09:51:23;7.60;99.90
22185;DHT22;11258;52.516;13.318;2022-11-27T09:53:57;7.80;99.90
22185;DHT22;11258;52.516;13.318;2022-11-27T09:56:24;7.80;99.90
22185;DHT22;11258;52.516;13.318;2022-11-27T09:58:56;7.80;99.90
22185;DHT22;11258;52.516;13.318;2022-11-27T10:01:28;7.80;99.90
22185;DHT22;11258;52.516;13.318;2022-11-27T10:03:54;7.60;99.90
22185;DHT22;11258;52.516;13.318;2022-11-27T10:17:49;7.30;99.90
22185;DHT22;11258;52.516;13.318;2022-11-27T10:20:36;7.50;99.90
22185;DHT22;11258;52.516;13.318;2022-11-27T10:23:45;7.50;99.90
22185;DHT22;11258;52.516;13.318;2022-11-27T10:26:19;7.50;99.90
22185;DHT22;11258;52.516;13.318;2022-11-27T10:31:39;7.60;99.90
22185;DHT22;11258;52.516;13.318;2022-11-27T10:34:35;7.60;99.90
22185;DHT22;11258;52.516;13.318;2022-11-27T10:37:14;7.70;99.90
22185;DHT22;11258;52.516;13.318;2022-11-27T10:39:47;7.70;99.90
22185;DHT22;11258;52.516;13.318;2022-11-27T10:42:48;7.80;99.90
22185;DHT22;11258;52.516;13.318;2022-11-27T10:45:23;7.90;99.90
22185;DHT22;11258;52.516;13.318;2022-11-27T10:47:49;8.00;99.90
22185;DHT22;11258;52.516;13.318;2022-11-27T10:50:16;8.20;99.90
22185;DHT22;11258;52.516;13.318;2022-11-27T10:52:52;8.50;99.90
22185;DHT22;11258;52.516;13.318;2022-11-27T11:00:34;8.70;99.90
22185;DHT22;11258;52.516;13.318;2022-11-27T11:03:03;8.70;99.90
22185;DHT22;11258;52.516;13.318;2022-11-27T11:05:30;8.70;99.90
22185;DHT22;11258;52.516;13.318;2022-11-27T11:08:18;8.80;99.90
22185;DHT22;11258;52.516;13.318;2022-11-27T11:13:23;8.80;99.90
22185;DHT22;11258;52.516;13.318;2022-11-27T11:16:04;8.80;99.90
22185;DHT22;11258;52.516;13.318;2022-11-27T11:18:40;8.70;99.90
22185;DHT22;11258;52.516;13.318;2022-11-27T11:21:16;8.70;99.90
22185;DHT22;11258;52.516;13.318;2022-11-27T11:23:43;8.50;99.90
22185;DHT22;11258;52.516;13.318;2022-11-27T11:28:50;8.60;99.90
22185;DHT22;11258;52.516;13.318;2022-11-27T11:31:18;8.40;99.90
22185;DHT22;11258;52.516;13.318;2022-11-27T11:34:17;8.50;99.90
22185;DHT22;11258;52.516;13.318;2022-11-27T11:36:57;8.50;99.90
22185;DHT22;11258;52.516;13.318;2022-11-27T11:39:25;8.50;99.90
22185;DHT22;11258;52.516;13.318;2022-11-27T11:41:51;8.70;99.90
22185;DHT22;11258;52.516;13.318;2022-11-27T11:44:27;8.60;99.90
22185;DHT22;11258;52.516;13.318;2022-11-27T11:46:54;8.60;99.90
22185;DHT22;11258;52.516;13.318;2022-11-27T11:49:27;8.70;99.90
22185;DHT22;11258;52.516;13.318;2022-11-27T11:57:10;8.70;99.90
22185;DHT22;11258;52.516;13.318;2022-11-27T12:00:23;8.70;99.90
22185;DHT22;11258;52.516;13.318;2022-11-27T12:11:16;8.60;99.90
22185;DHT22;11258;52.516;13.318;2022-11-27T12:16:26;8.70;99.90
22185;DHT22;11258;52.516;13.318;2022-11-27T12:19:40;8.70;99.90
22185;DHT22;11258;52.516;13.318;2022-11-27T12:30:02;8.30;99.90
22185;DHT22;11258;52.516;13.318;2022-11-27T12:33:20;8.30;99.90
22185;DHT22;11258;52.516;13.318;2022-11-27T12:41:25;8.40;99.90
22185;DHT22;11258;52.516;13.318;2022-11-27T12:43:56;8.40;99.90
22185;DHT22;11258;52.516;13.318;2022-11-27T12:49:46;8.50;99.90
22185;DHT22;11258;52.516;13.318;2022-11-27T12:52:30;8.30;99.90
22185;DHT22;11258;52.516;13.318;2022-11-27T12:55:17;8.30;99.90
22185;DHT22;11258;52.516;13.318;2022-11-27T12:57:50;8.30;99.90
22185;DHT22;11258;52.516;13.318;2022-11-27T13:00:22;8.30;99.90
22185;DHT22;11258;52.516;13.318;2022-11-27T13:03:14;8.40;99.90
22185;DHT22;11258;52.516;13.318;2022-11-27T13:05:46;8.30;99.90
22185;DHT22;11258;52.516;13.318;2022-11-27T13:08:39;8.30;99.90
22185;DHT22;11258;52.516;13.318;2022-11-27T13:11:09;8.30;99.90
22185;DHT22;11258;52.516;13.318;2022-11-27T13:13:42;8.40;99.90
22185;DHT22;11258;52.516;13.318;2022-11-27T13:18:55;8.40;99.90
22185;DHT22;11258;52.516;13.318;2022-11-27T13:21:29;8.30;99.90
22185;DHT22;11258;52.516;13.318;2022-11-27T13:23:59;8.20;99.90
22185;DHT22;11258;52.516;13.318;2022-11-27T13:26:53;8.10;99.90
22185;DHT22;11258;52.516;13.318;2022-11-27T13:29:36;8.10;99.90
22185;DHT22;11258;52.516;13.318;2022-11-27T13:32:05;8.10;99.90
22185;DHT22;11258;52.516;13.318;2022-11-27T13:34:33;8.10;99.90
22185;DHT22;11258;52.516;13.318;2022-11-27T13:37:07;8.20;99.90
22185;DHT22;11258;52.516;13.318;2022-11-27T13:39:36;8.10;99.90
22185;DHT22;11258;52.516;13.318;2022-11-27T13:44:34;8.10;99.90
22185;DHT22;11258;52.516;13.318;2022-11-27T13:47:07;8.10;99.90
22185;DHT22;11258;52.516;13.318;2022-11-27T13:49:35;8.10;99.90
22185;DHT22;11258;52.516;13.318;2022-11-27T13:54:30;8.10;99.90
22185;DHT22;11258;52.516;13.318;2022-11-27T13:56:56;8.00;99.90
22185;DHT22;11258;52.516;13.318;2022-11-27T13:59:24;8.00;99.90
22185;DHT22;11258;52.516;13.318;2022-11-27T14:01:57;7.90;99.90
22185;DHT22;11258;52.516;13.318;2022-11-27T14:04:25;7.90;99.90
22185;DHT22;11258;52.516;13.318;2022-11-27T14:07:03;7.90;99.90
22185;DHT22;11258;52.516;13.318;2022-11-27T14:09:41;7.90;99.90
22185;DHT22;11258;52.516;13.318;2022-11-27T14:12:23;7.90;99.90
22185;DHT22;11258;52.516;13.318;2022-11-27T14:15:20;7.90;99.90
22185;DHT22;11258;52.516;13.318;2022-11-27T14:17:49;7.90;99.90
22185;DHT22;11258;52.516;13.318;2022-11-27T14:22:45;7.90;99.90
22185;DHT22;11258;52.516;13.318;2022-11-27T14:25:22;7.80;99.90
22185;DHT22;11258;52.516;13.318;2022-11-27T14:30:48;7.90;99.90
22185;DHT22;11258;52.516;13.318;2022-11-27T14:36:21;7.90;99.90
22185;DHT22;11258;52.516;13.318;2022-11-27T14:38:47;7.90;99.90
22185;DHT22;11258;52.516;13.318;2022-11-27T14:41:22;7.90;99.90
22185;DHT22;11258;52.516;13.318;2022-11-27T14:43:57;7.90;99.90
22185;DHT22;11258;52.516;13.318;2022-11-27T14:46:23;7.80;99.90
22185;DHT22;11258;52.516;13.318;2022-11-27T14:48:53;7.70;99.90
22185;DHT22;11258;52.516;13.318;2022-11-27T14:51:27;7.70;99.90
22185;DHT22;11258;52.516;13.318;2022-11-27T14:54:04;7.70;99.90
22185;DHT22;11258;52.516;13.318;2022-11-27T14:56:36;7.70;99.90
22185;DHT22;11258;52.516;13.318;2022-11-27T14:59:03;7.70;99.90
22185;DHT22;11258;52.516;13.318;2022-11-27T15:01:33;7.70;99.90
22185;DHT22;11258;52.516;13.318;2022-11-27T15:04:24;7.60;99.90
22185;DHT22;11258;52.516;13.318;2022-11-27T15:06:50;7.60;99.90
22185;DHT22;11258;52.516;13.318;2022-11-27T15:09:21;7.60;99.90
22185;DHT22;11258;52.516;13.318;2022-11-27T15:11:52;7.60;99.90
22185;DHT22;11258;52.516;13.318;2022-11-27T15:14:18;7.60;99.90
22185;DHT22;11258;52.516;13.318;2022-11-27T15:16:46;7.60;99.90
22185;DHT22;11258;52.516;13.318;2022-11-27T15:19:34;7.50;99.90
22185;DHT22;11258;52.516;13.318;2022-11-27T15:22:01;7.60;99.90
22185;DHT22;11258;52.516;13.318;2022-11-27T15:24:35;7.50;99.90
22185;DHT22;11258;52.516;13.318;2022-11-27T15:27:30;7.60;99.90
22185;DHT22;11258;52.516;13.318;2022-11-27T15:30:22;7.50;99.90
22185;DHT22;11258;52.516;13.318;2022-11-27T15:32:50;7.50;99.90
22185;DHT22;11258;52.516;13.318;2022-11-27T15:35:34;7.50;99.90
22185;DHT22;11258;52.516;13.318;2022-11-27T15:38:08;7.50;99.90
22185;DHT22;11258;52.516;13.318;2022-11-27T15:40:39;7.40;99.90
22185;DHT22;11258;52.516;13.318;2022-11-27T15:43:11;7.50;99.90
22185;DHT22;11258;52.516;13.318;2022-11-27T15:45:37;7.40;99.90
22185;DHT22;11258;52.516;13.318;2022-11-27T15:48:03;7.40;99.90
22185;DHT22;11258;52.516;13.318;2022-11-27T15:50:29;7.30;99.90
22185;DHT22;11258;52.516;13.318;2022-11-27T15:52:55;7.40;99.90
22185;DHT22;11258;52.516;13.318;2022-11-27T15:55:21;7.30;99.90
22185;DHT22;11258;52.516;13.318;2022-11-27T15:57:47;7.30;99.90
22185;DHT22;11258;52.516;13.318;2022-11-27T16:00:13;7.30;99.90
22185;DHT22;11258;52.516;13.318;2022-11-27T16:02:39;7.30;99.90
22185;DHT22;11258;52.516;13.318;2022-11-27T16:05:06;7.30;99.90
22185;DHT22;11258;52.516;13.318;2022-11-27T16:07:32;7.30;99.90
22185;DHT22;11258;52.516;13.318;2022-11-27T16:09:58;7.30;99.90
22185;DHT22;11258;52.516;13.318;2022-11-27T16:12:24;7.20;99.90
22185;DHT22;11258;52.516;13.318;2022-11-27T16:14:49;7.20;99.90
22185;DHT22;11258;52.516;13.318;2022-11-27T16:17:15;7.20;99.90
22185;DHT22;11258;52.516;13.318;2022-11-27T16:19:40;7.20;99.90
22185;DHT22;11258;52.516;13.318;2022-11-27T16:22:06;7.20;99.90
22185;DHT22;11258;52.516;13.318;2022-11-27T16:24:31;7.10;99.90
22185;DHT22;11258;52.516;13.318;2022-11-27T16:26:57;7.10;99.90
22185;DHT22;11258;52.516;13.318;2022-11-27T16:29:23;7.10;99.90
22185;DHT22;11258;52.516;13.318;2022-11-27T16:31:48;7.20;99.90
22185;DHT22;11258;52.516;13.318;2022-11-27T16:34:14;7.00;99.90
22185;DHT22;11258;52.516;13.318;2022-11-27T16:36:41;7.10;99.90
22185;DHT22;11258;52.516;13.318;2022-11-27T16:39:08;7.10;99.90
22185;DHT22;11258;52.516;13.318;2022-11-27T16:41:34;7.10;99.90
22185;DHT22;11258;52.516;13.318;2022-11-27T16:44:00;7.00;99.90
22185;DHT22;11258;52.516;13.318;2022-11-27T16:46:28;7.00;99.90
22185;DHT22;11258;52.516;13.318;2022-11-27T16:48:55;7.00;99.90
22185;DHT22;11258;52.516;13.318;2022-11-27T16:51:26;7.00;99.90
22185;DHT22;11258;52.516;13.318;2022-11-27T16:53:57;7.00;99.90
22185;DHT22;11258;52.516;13.318;2022-11-27T16:56:25;7.00;99.90
22185;DHT22;11258;52.516;13.318;2022-11-27T16:58:51;7.00;99.90
22185;DHT22;11258;52.516;13.318;2022-11-27T17:01:22;7.00;99.90
22185;DHT22;11258;52.516;13.318;2022-11-27T17:03:48;7.00;99.90
22185;DHT22;11258;52.516;13.318;2022-11-27T17:06:20;7.00;99.90
22185;DHT22;11258;52.516;13.318;2022-11-27T17:08:47;6.90;99.90
22185;DHT22;11258;52.516;13.318;2022-11-27T17:11:18;7.00;99.90
22185;DHT22;11258;52.516;13.318;2022-11-27T17:13:45;6.90;99.90
22185;DHT22;11258;52.516;13.318;2022-11-27T17:16:11;6.80;99.90
22185;DHT22;11258;52.516;13.318;2022-11-27T17:18:40;6.80;99.90
22185;DHT22;11258;52.516;13.318;2022-11-27T17:21:16;6.80;99.90
22185;DHT22;11258;52.516;13.318;2022-11-27T17:23:44;6.80;99.90
22185;DHT22;11258;52.516;13.318;2022-11-27T17:26:14;6.80;99.90
22185;DHT22;11258;52.516;13.318;2022-11-27T17:28:40;6.80;99.90
22185;DHT22;11258;52.516;13.318;2022-11-27T17:31:16;6.80;99.90
22185;DHT22;11258;52.516;13.318;2022-11-27T17:33:42;6.80;99.90